ADDS TAF Data INFO
IDs: Format: Raw Decoded Include METARs

Data at: 0510 UTC 20 Apr 2018

TAF for:KMRB (Martinsburg/E West V, WV, US) issued at 0202 UTC 20 Apr 2018
Text:KMRB 200202Z 2002/2024 31011G18KT P6SM FEW050
Forecast period:0200 to 1300 UTC 20 April 2018
Forecast type:FROM: standard forecast or significant change
Winds:from the NW (310 degrees) at 13 MPH (11 knots; 5.7 m/s) gusting to 21 MPH (18 knots; 9.3 m/s)
Visibility:6 or more sm (10+ km)
Ceiling:at least 12,000 feet AGL
Clouds: few clouds at 5000 feet AGL
Text:FM201300 32014G24KT P6SM FEW050
Forecast period:1300 to 2300 UTC 20 April 2018
Forecast type:FROM: standard forecast or significant change
Winds:from the NW (320 degrees) at 16 MPH (14 knots; 7.2 m/s) gusting to 28 MPH (24 knots; 12.3 m/s)
Visibility:6 or more sm (10+ km)
Ceiling:at least 12,000 feet AGL
Clouds: few clouds at 5000 feet AGL
Text:FM202300 32010G17KT P6SM FEW250
Forecast period:2300 UTC 20 April 2018 to 0000 UTC 21 April 2018
Forecast type:FROM: standard forecast or significant change
Winds:from the NW (320 degrees) at 12 MPH (10 knots; 5.1 m/s) gusting to 20 MPH (17 knots; 8.7 m/s)
Visibility:6 or more sm (10+ km)
Ceiling:at least 12,000 feet AGL
Clouds: few clouds at 25000 feet AGL